This is the latest recevied weather packets stored in our database for station/object KP4CRN. If no packets are shown the sender has not sent any weather packets the latest 10 day(s).
| Time | Temp. | Humidity | Pressure | Rain* | Wind** | Luminosity | Snow |
|---|---|---|---|---|---|---|---|
| 1777562557 | 31.67° C | 70% | 1013.2 hPa | 0 mm | - | 431 W/m² | - |
| 1777562254 | 31.67° C | 70% | 1013.3 hPa | 0 mm | - | 900 W/m² | - |
| 1777561952 | 30.56° C | 71% | 1013.4 hPa | 0 mm | - | 678 W/m² | - |
| 1777561649 | 30° C | 75% | 1013.4 hPa | 0 mm | - | 435 W/m² | - |
| 1777561345 | 30.56° C | 74% | 1013.5 hPa | 0 mm | - | 436 W/m² | - |
| 1777561040 | 30° C | 75% | 1013.6 hPa | 0 mm | - | 364 W/m² | - |
| 1777560736 | 31.11° C | 73% | 1013.7 hPa | 0 mm | - | 382 W/m² | - |
| 1777560432 | 30° C | 74% | 1013.7 hPa | 0 mm | - | 456 W/m² | - |
| 1777560131 | 30° C | 74% | 1013.7 hPa | 0 mm | - | 456 W/m² | - |
| 1777559827 | 30° C | 75% | 1014 hPa | 0 mm | - | 430 W/m² | - |
| 1777559523 | 30° C | 76% | 1013.9 hPa | 0 mm | - | 379 W/m² | - |
| 1777559220 | 30° C | 75% | 1013.9 hPa | 0 mm | - | 502 W/m² | - |
| 1777558915 | 30° C | 76% | 1014.1 hPa | 0 mm | - | 629 W/m² | - |
| 1777558611 | 30° C | 75% | 1014 hPa | 0 mm | - | 794 W/m² | - |
| 1777558307 | 30.56° C | 74% | 1014.3 hPa | 0 mm | - | 518 W/m² | - |
| 1777558004 | 30.56° C | 75% | 1014.4 hPa | 0 mm | - | 807 W/m² | - |
| 1777557700 | 30° C | 76% | 1014.2 hPa | 0 mm | - | 454 W/m² | - |
| 1777557397 | 29.44° C | 79% | 1014.3 hPa | 0 mm | - | 597 W/m² | - |
| 1777557093 | 29.44° C | 78% | 1014.5 hPa | 0 mm | - | 357 W/m² | - |
| 1777556788 | 29.44° C | 79% | 1014.2 hPa | 0 mm | - | 692 W/m² | - |
| 1777556486 | 29.44° C | 79% | 1014.4 hPa | 0 mm | - | 722 W/m² | - |
| 1777556185 | 28.89° C | 80% | 1014.3 hPa | 0 mm | - | 580 W/m² | - |
| 1777555881 | 28.89° C | 81% | 1014.5 hPa | 0 mm | - | 686 W/m² | - |
| 1777555577 | 28.89° C | 81% | 1014.4 hPa | 0 mm | - | 301 W/m² | - |
| 1777555274 | 28.33° C | 82% | 1014.4 hPa | 0 mm | - | 438 W/m² | - |
* Rain latest hour (hover to see other rain measurements)
** Current wind speed in m/s (hover to see current wind gust speed)